Time;durP1;ratioP1;P1;durP2;ratioP2;P2;SDS_P1;SDS_P2;PMS_P1;PMS_P2;Temp;Humidity;BMP_temperature;BMP_pressure;BME280_temperature;BME280_humidity;BME280_pressure;Samples;Min_cycle;Max_cycle;Signal;HPM_P1;HPM_P2
2022/06/25 00:01:51;;;;;;;5.53;5.23;;;21.20;99.90;;;;;;5088149;28;20628;-69
2022/06/25 00:07:01;;;;;;;5.50;5.20;;;21.30;99.90;;;;;;5132309;27;20167;-69
2022/06/25 00:09:27;;;;;;;5.00;4.80;;;21.20;99.90;;;;;;5130683;28;20962;-69
2022/06/25 00:14:37;;;;;;;5.23;5.03;;;21.20;99.90;;;;;;5129477;27;20424;-69
2022/06/25 00:17:03;;;;;;;5.10;4.80;;;21.20;99.90;;;;;;5111151;28;20421;-69
2022/06/25 00:19:29;;;;;;;5.40;5.10;;;21.20;99.90;;;;;;5112269;28;20413;-69
2022/06/25 00:21:55;;;;;;;5.10;4.90;;;21.20;99.90;;;;;;5117695;28;20460;-69
2022/06/25 00:24:21;;;;;;;5.17;4.97;;;21.20;99.90;;;;;;5132799;28;20611;-69
2022/06/25 00:26:47;;;;;;;4.90;4.63;;;21.10;99.90;;;;;;5129161;28;20412;-69
2022/06/25 00:29:13;;;;;;;5.07;4.77;;;21.10;99.90;;;;;;5132595;28;20416;-69
2022/06/25 00:31:38;;;;;;;4.80;4.60;;;21.00;99.90;;;;;;5132532;27;20167;-70
2022/06/25 00:34:04;;;;;;;5.43;5.13;;;21.00;99.90;;;;;;5134340;27;20203;-69
2022/06/25 00:36:31;;;;;;;5.03;4.83;;;21.00;99.90;;;;;;5136559;27;20206;-69
2022/06/25 00:38:57;;;;;;;5.37;5.07;;;21.00;99.90;;;;;;5135417;27;20167;-69
2022/06/25 00:41:23;;;;;;;5.30;5.10;;;21.00;99.90;;;;;;5136392;27;20548;-69
2022/06/25 00:43:48;;;;;;;5.30;5.10;;;20.90;99.90;;;;;;5135563;27;20400;-69
2022/06/25 00:46:14;;;;;;;5.47;5.17;;;20.90;99.90;;;;;;5117206;27;20191;-69
2022/06/25 00:48:40;;;;;;;5.70;5.50;;;20.90;99.90;;;;;;5115620;28;20183;-70
2022/06/25 00:51:16;;;;;;;5.47;5.07;;;20.90;99.90;;;;;;5114960;28;20581;-69
2022/06/25 00:53:44;;;;;;;5.23;4.60;;;20.90;99.90;;;;;;5127797;27;20206;-70
2022/06/25 00:56:11;;;;;;;5.50;5.10;;;20.90;99.90;;;;;;5122937;27;20497;-69
2022/06/25 00:58:43;;;;;;;5.37;5.17;;;20.90;99.90;;;;;;5113607;28;20440;-69
2022/06/25 01:01:09;;;;;;;5.20;4.87;;;20.90;99.90;;;;;;5115123;28;20462;-69
2022/06/25 01:03:37;;;;;;;6.40;6.00;;;20.90;99.90;;;;;;5115506;28;20469;-69
2022/06/25 01:06:06;;;;;;;6.00;5.70;;;20.90;99.90;;;;;;5114583;28;20566;-69
2022/06/25 01:08:33;;;;;;;5.90;5.60;;;20.90;99.90;;;;;;5115299;28;20433;-69
2022/06/25 01:11:00;;;;;;;5.63;5.30;;;20.90;99.90;;;;;;5114185;28;20775;-69
2022/06/25 01:13:26;;;;;;;5.67;5.37;;;21.00;99.90;;;;;;5127268;27;20981;-68
2022/06/25 01:15:51;;;;;;;5.13;4.93;;;21.00;99.90;;;;;;5118214;27;20469;-68
2022/06/25 01:18:18;;;;;;;6.00;5.60;;;21.00;99.90;;;;;;5122399;27;20187;-68
2022/06/25 01:20:44;;;;;;;5.50;5.10;;;21.00;99.90;;;;;;5133458;27;20690;-70
2022/06/25 01:23:13;;;;;;;5.70;5.30;;;21.00;99.90;;;;;;5135112;27;20416;-68
2022/06/25 01:25:40;;;;;;;5.63;5.23;;;21.00;99.90;;;;;;5135819;27;20409;-68
2022/06/25 01:28:06;;;;;;;5.30;4.90;;;21.00;99.90;;;;;;5133478;27;20408;-68
2022/06/25 01:30:32;;;;;;;5.20;5.00;;;21.00;99.90;;;;;;5134177;27;20416;-68
2022/06/25 01:32:58;;;;;;;5.50;5.13;;;21.00;99.90;;;;;;5134638;27;20423;-68
2022/06/25 01:35:24;;;;;;;5.33;4.93;;;21.10;99.90;;;;;;5132380;27;20464;-68
2022/06/25 01:37:50;;;;;;;5.43;5.13;;;21.00;99.90;;;;;;5134287;27;20239;-68
2022/06/25 01:40:16;;;;;;;5.27;4.97;;;21.00;99.90;;;;;;5127833;27;20213;-68
2022/06/25 01:43:00;;;;;;;5.33;5.03;;;21.00;99.90;;;;;;5115314;27;20189;-68
2022/06/25 01:45:28;;;;;;;4.90;4.70;;;21.00;99.90;;;;;;5135545;27;20171;-68
2022/06/25 01:47:54;;;;;;;5.40;5.03;;;21.00;99.90;;;;;;5134430;27;20436;-68
2022/06/25 01:50:20;;;;;;;5.20;5.00;;;20.90;99.90;;;;;;5135121;27;20481;-68
2022/06/25 01:52:46;;;;;;;4.90;4.70;;;21.00;99.90;;;;;;5133637;27;20456;-70
2022/06/25 01:55:12;;;;;;;4.63;4.40;;;20.90;99.90;;;;;;5134841;27;20455;-69
2022/06/25 01:57:39;;;;;;;5.03;4.83;;;20.90;99.90;;;;;;5134927;27;20466;-69
2022/06/25 02:00:07;;;;;;;5.40;5.10;;;20.90;99.90;;;;;;5132567;27;20468;-68
2022/06/25 02:02:33;;;;;;;5.00;4.70;;;20.90;99.90;;;;;;5134845;27;20889;-68
2022/06/25 02:04:59;;;;;;;4.90;4.70;;;20.80;99.90;;;;;;5132438;27;20483;-69
2022/06/25 02:07:24;;;;;;;4.63;4.43;;;20.90;99.90;;;;;;5134753;27;20163;-69
2022/06/25 02:09:50;;;;;;;5.10;4.90;;;20.80;99.90;;;;;;5127947;27;20213;-69
2022/06/25 02:12:16;;;;;;;6.23;5.83;;;20.80;99.90;;;;;;5114165;28;20179;-68
2022/06/25 02:14:41;;;;;;;5.13;4.93;;;20.70;99.90;;;;;;5113944;27;20172;-69
2022/06/25 02:17:07;;;;;;;5.17;4.87;;;20.70;99.90;;;;;;5133628;27;20781;-69
2022/06/25 02:19:33;;;;;;;5.10;4.70;;;20.70;99.90;;;;;;5132848;27;20175;-68
2022/06/25 02:21:59;;;;;;;5.00;4.70;;;20.70;99.90;;;;;;5133763;27;20464;-69
2022/06/25 02:24:25;;;;;;;5.40;5.10;;;20.60;99.90;;;;;;5081291;27;20194;-68
2022/06/25 02:26:50;;;;;;;5.53;5.23;;;20.60;99.90;;;;;;5133534;27;20255;-69
2022/06/25 02:29:16;;;;;;;6.37;5.93;;;20.50;99.90;;;;;;5134414;27;20312;-69
2022/06/25 02:31:42;;;;;;;5.73;5.43;;;20.50;99.90;;;;;;5132974;27;20227;-69
2022/06/25 02:34:07;;;;;;;6.10;5.80;;;20.50;99.90;;;;;;5131424;27;20445;-68
2022/06/25 02:36:33;;;;;;;5.83;5.53;;;20.50;99.90;;;;;;5133766;27;20661;-69
2022/06/25 02:38:59;;;;;;;5.70;5.30;;;20.50;99.90;;;;;;5132095;27;20201;-68
2022/06/25 02:41:24;;;;;;;6.20;5.80;;;20.50;99.90;;;;;;5114804;27;20184;-69
2022/06/25 02:43:50;;;;;;;5.77;5.47;;;20.50;99.90;;;;;;5113102;28;20540;-70
2022/06/25 02:46:16;;;;;;;5.83;5.43;;;20.50;99.90;;;;;;5113743;28;20176;-68
2022/06/25 02:48:42;;;;;;;6.27;5.77;;;20.40;99.90;;;;;;5117070;27;20428;-68
2022/06/25 02:51:07;;;;;;;5.80;5.50;;;20.40;99.90;;;;;;5133094;27;20607;-68
2022/06/25 02:53:33;;;;;;;5.50;5.10;;;20.40;99.90;;;;;;5132686;27;20182;-68
2022/06/25 02:58:56;;;;;;;5.93;5.57;;;20.40;99.90;;;;;;5130863;27;20179;-69
2022/06/25 03:01:23;;;;;;;5.97;5.67;;;20.40;99.90;;;;;;5131498;27;20489;-68
2022/06/25 03:03:49;;;;;;;5.40;5.17;;;20.50;99.90;;;;;;5133372;27;20507;-69
2022/06/25 03:06:15;;;;;;;5.70;5.40;;;20.50;99.90;;;;;;5133077;27;20466;-68
2022/06/25 03:08:41;;;;;;;8.33;5.30;;;20.40;99.90;;;;;;5131700;27;20429;-70
2022/06/25 03:11:07;;;;;;;6.13;5.77;;;20.40;99.90;;;;;;5117026;27;20218;-71
2022/06/25 03:13:35;;;;;;;6.23;5.83;;;20.40;99.90;;;;;;5113134;28;20172;-70
2022/06/25 03:16:02;;;;;;;6.30;5.90;;;20.30;99.90;;;;;;5112255;28;20469;-70
2022/06/25 03:18:28;;;;;;;5.80;5.60;;;20.30;99.90;;;;;;5115459;27;20461;-69
2022/06/25 03:20:54;;;;;;;5.90;5.60;;;20.30;99.90;;;;;;5110713;28;20995;-70
2022/06/25 03:23:20;;;;;;;5.50;5.10;;;20.30;99.90;;;;;;5112986;28;20248;-70
2022/06/25 03:25:46;;;;;;;6.37;5.97;;;20.30;99.90;;;;;;5110501;28;20653;-70
2022/06/25 03:28:12;;;;;;;6.17;5.77;;;20.30;99.90;;;;;;5115201;27;20484;-70
2022/06/25 03:30:38;;;;;;;6.53;6.10;;;20.30;99.90;;;;;;5133271;27;20412;-70
2022/06/25 03:33:04;;;;;;;6.03;5.73;;;20.30;99.90;;;;;;5132266;27;20178;-70
2022/06/25 03:35:30;;;;;;;6.13;5.73;;;20.20;99.90;;;;;;5124592;27;20460;-70
2022/06/25 03:37:56;;;;;;;6.40;5.87;;;20.20;99.90;;;;;;5132495;28;20175;-69
2022/06/25 03:40:21;;;;;;;6.80;6.30;;;20.30;99.90;;;;;;5123586;28;20910;-70
2022/06/25 03:42:49;;;;;;;6.07;5.70;;;20.30;99.90;;;;;;5125291;28;20443;-69
2022/06/25 03:45:14;;;;;;;6.00;5.70;;;20.30;99.90;;;;;;5130673;28;20182;-69
2022/06/25 03:47:41;;;;;;;5.73;5.43;;;20.30;99.90;;;;;;5132878;28;20416;-69
2022/06/25 03:50:07;;;;;;;6.67;6.27;;;20.30;99.90;;;;;;5125396;28;20453;-69
2022/06/25 03:52:33;;;;;;;5.77;5.47;;;20.40;99.90;;;;;;5131773;28;20911;-70
2022/06/25 03:54:59;;;;;;;6.20;5.90;;;20.40;99.90;;;;;;5124783;28;20460;-70
2022/06/25 03:57:25;;;;;;;6.03;5.73;;;20.40;99.90;;;;;;5132810;28;20400;-69
2022/06/25 03:59:51;;;;;;;5.40;5.10;;;20.40;99.90;;;;;;5132951;28;20179;-72
2022/06/25 04:02:17;;;;;;;6.93;6.43;;;20.50;99.90;;;;;;5129527;28;20273;-69
2022/06/25 04:04:43;;;;;;;5.40;5.20;;;20.50;99.90;;;;;;5126485;28;20507;-69
2022/06/25 04:07:09;;;;;;;6.07;5.43;;;20.50;99.90;;;;;;5128501;27;20186;-69
2022/06/25 04:09:35;;;;;;;5.70;5.40;;;20.60;99.90;;;;;;5128964;27;20219;-70
2022/06/25 04:12:00;;;;;;;5.90;5.50;;;20.50;99.90;;;;;;5132075;27;20491;-69
2022/06/25 04:14:26;;;;;;;5.57;5.27;;;20.50;99.90;;;;;;5136961;27;20171;-69
2022/06/25 04:16:54;;;;;;;6.00;5.60;;;20.50;99.90;;;;;;5136596;27;20198;-72
2022/06/25 04:19:20;;;;;;;6.30;5.17;;;20.50;99.90;;;;;;5135353;27;20175;-69
2022/06/25 04:21:47;;;;;;;5.90;5.60;;;20.50;99.90;;;;;;5136644;27;20539;-69
2022/06/25 04:24:15;;;;;;;5.33;5.13;;;20.50;99.90;;;;;;5136012;27;20817;-69
2022/06/25 04:26:41;;;;;;;5.90;5.50;;;20.40;99.90;;;;;;5136469;27;20456;-69
2022/06/25 04:29:08;;;;;;;4.73;4.43;;;20.30;99.90;;;;;;5135613;27;20758;-69
2022/06/25 04:31:36;;;;;;;5.13;4.73;;;20.30;99.90;;;;;;5136561;27;20888;-70
2022/06/25 04:34:03;;;;;;;5.37;4.97;;;20.30;99.90;;;;;;5130762;27;20915;-70
2022/06/25 04:36:29;;;;;;;5.47;5.07;;;20.30;99.90;;;;;;5135096;27;20554;-69
2022/06/25 04:38:56;;;;;;;5.60;5.30;;;20.30;99.90;;;;;;5134235;27;20424;-73
2022/06/25 04:41:22;;;;;;;5.33;4.93;;;20.30;99.90;;;;;;5120560;27;20444;-69
2022/06/25 04:43:48;;;;;;;5.17;4.80;;;20.20;99.90;;;;;;5136363;27;20419;-69
2022/06/25 04:46:14;;;;;;;5.93;5.53;;;20.30;99.90;;;;;;5135480;27;20454;-69
2022/06/25 04:48:40;;;;;;;6.23;5.73;;;20.40;99.90;;;;;;5135997;27;20419;-69
2022/06/25 04:51:06;;;;;;;5.20;4.93;;;20.50;99.90;;;;;;5126371;27;20432;-69
2022/06/25 04:53:32;;;;;;;5.60;5.20;;;20.50;99.90;;;;;;5136426;27;20503;-69
2022/06/25 04:55:58;;;;;;;5.97;5.57;;;20.50;99.90;;;;;;5135317;27;20527;-72
2022/06/25 04:58:24;;;;;;;5.20;5.00;;;20.50;99.90;;;;;;5128265;27;20432;-69
2022/06/25 05:00:50;;;;;;;5.53;5.30;;;20.40;99.90;;;;;;5082593;27;20416;-69
2022/06/25 05:03:17;;;;;;;6.10;5.70;;;20.30;99.90;;;;;;5134944;27;20175;-69
2022/06/25 05:05:43;;;;;;;5.30;5.00;;;20.30;99.90;;;;;;5135946;27;20444;-69
2022/06/25 05:08:08;;;;;;;5.60;5.10;;;20.30;99.90;;;;;;5135353;27;20493;-69
2022/06/25 05:10:34;;;;;;;5.60;5.30;;;20.20;99.90;;;;;;5120157;27;20560;-69
2022/06/25 05:13:12;;;;;;;11.00;9.63;;;20.10;99.90;;;;;;5113831;28;20186;-70
2022/06/25 05:15:39;;;;;;;8.10;7.43;;;20.20;99.90;;;;;;5114927;28;20259;-70
2022/06/25 05:18:09;;;;;;;5.80;5.40;;;20.10;99.90;;;;;;5118721;27;20451;-70
2022/06/25 05:20:42;;;;;;;6.23;5.83;;;20.10;99.90;;;;;;5135758;27;20524;-69
2022/06/25 05:23:08;;;;;;;7.27;6.70;;;20.10;99.90;;;;;;5128947;27;20779;-69
2022/06/25 05:25:35;;;;;;;6.20;5.77;;;20.00;99.90;;;;;;5135673;27;20498;-69
2022/06/25 05:28:01;;;;;;;5.73;5.40;;;20.00;99.90;;;;;;5133400;27;20420;-70
2022/06/25 05:30:27;;;;;;;7.20;6.60;;;20.10;99.90;;;;;;5127131;27;20451;-70
2022/06/25 05:32:53;;;;;;;8.47;7.70;;;20.10;99.90;;;;;;5135434;27;20416;-69
2022/06/25 05:35:19;;;;;;;8.20;7.60;;;20.20;99.90;;;;;;5133394;27;20207;-70
2022/06/25 05:37:45;;;;;;;7.90;7.40;;;20.40;99.90;;;;;;5134086;27;20424;-69
2022/06/25 05:40:11;;;;;;;6.37;5.97;;;20.50;99.90;;;;;;5120141;27;20430;-69
2022/06/25 05:42:37;;;;;;;5.73;5.43;;;20.50;99.90;;;;;;5133730;27;20182;-70
2022/06/25 05:45:03;;;;;;;6.17;5.77;;;20.70;99.90;;;;;;5133233;27;20906;-68
2022/06/25 05:47:29;;;;;;;6.60;6.20;;;20.70;99.90;;;;;;5130067;27;20179;-69
2022/06/25 05:49:55;;;;;;;6.40;6.00;;;20.70;99.90;;;;;;5135112;27;20415;-69
2022/06/25 05:52:22;;;;;;;5.43;5.13;;;20.60;99.90;;;;;;5134288;27;20413;-69
2022/06/25 05:54:48;;;;;;;5.83;5.43;;;20.50;99.90;;;;;;5134666;27;20611;-69
2022/06/25 05:57:14;;;;;;;5.47;5.27;;;20.50;99.90;;;;;;5128390;27;20429;-69
2022/06/25 05:59:40;;;;;;;5.77;5.40;;;20.60;99.90;;;;;;5133400;27;20436;-69
2022/06/25 06:02:06;;;;;;;5.27;4.97;;;20.60;99.90;;;;;;5124613;27;20187;-69
2022/06/25 06:04:32;;;;;;;5.43;5.03;;;20.70;99.90;;;;;;5134816;27;20507;-70
2022/06/25 06:07:00;;;;;;;5.37;5.07;;;20.80;99.90;;;;;;5107366;27;20590;-71
2022/06/25 06:09:31;;;;;;;5.47;5.10;;;20.90;99.90;;;;;;5112574;27;20184;-71
2022/06/25 06:11:58;;;;;;;5.33;4.93;;;21.00;99.90;;;;;;5116461;27;20515;-72
2022/06/25 06:14:24;;;;;;;5.77;5.27;;;21.10;99.90;;;;;;5120176;27;20424;-72
2022/06/25 06:16:49;;;;;;;6.10;5.70;;;21.10;99.90;;;;;;5114225;28;20791;-72
2022/06/25 06:19:15;;;;;;;5.83;5.43;;;21.00;99.90;;;;;;5113318;28;20175;-72
2022/06/25 06:21:41;;;;;;;5.97;5.60;;;21.20;99.90;;;;;;5116431;27;20297;-72
2022/06/25 06:24:07;;;;;;;6.27;5.77;;;21.40;99.90;;;;;;5097434;28;20193;-72
2022/06/25 06:26:33;;;;;;;5.80;5.50;;;21.60;99.90;;;;;;5111296;28;20191;-71
2022/06/25 06:28:59;;;;;;;6.23;5.67;;;21.80;99.90;;;;;;5113680;27;20266;-73
2022/06/25 06:31:25;;;;;;;6.03;5.63;;;21.90;99.90;;;;;;5105230;27;20517;-72
2022/06/25 06:33:51;;;;;;;6.30;5.70;;;22.00;99.90;;;;;;5099147;28;20429;-72
2022/06/25 06:36:17;;;;;;;5.57;5.00;;;22.10;99.90;;;;;;5108906;27;20211;-72
2022/06/25 06:38:43;;;;;;;5.57;5.17;;;22.20;99.90;;;;;;5109654;27;20175;-71
2022/06/25 06:41:09;;;;;;;6.40;5.80;;;22.30;99.90;;;;;;5113512;27;20602;-70
2022/06/25 06:43:36;;;;;;;5.70;5.40;;;22.40;99.90;;;;;;5115496;27;20516;-69
2022/06/25 06:46:02;;;;;;;5.90;5.37;;;22.50;99.90;;;;;;5114613;27;20193;-71
2022/06/25 06:48:28;;;;;;;5.87;5.57;;;22.40;99.90;;;;;;5110399;27;20444;-71
2022/06/25 06:50:54;;;;;;;13.67;5.37;;;22.10;99.90;;;;;;5107561;28;20433;-71
2022/06/25 06:53:21;;;;;;;5.17;4.87;;;22.30;99.90;;;;;;5134371;27;20263;-71
2022/06/25 06:55:47;;;;;;;5.50;5.10;;;22.40;99.90;;;;;;5099203;28;20687;-71
2022/06/25 06:58:13;;;;;;;5.87;5.47;;;22.60;99.90;;;;;;5117542;27;20412;-71
2022/06/25 07:00:39;;;;;;;5.60;5.20;;;22.60;99.90;;;;;;5119506;27;20448;-70
2022/06/25 07:03:05;;;;;;;5.60;5.10;;;22.30;99.90;;;;;;5096038;28;20426;-71
2022/06/25 07:05:30;;;;;;;5.07;4.77;;;22.50;99.90;;;;;;5126453;27;20178;-70
2022/06/25 07:07:56;;;;;;;5.07;4.73;;;22.40;99.90;;;;;;5131033;27;20184;-70
2022/06/25 07:10:22;;;;;;;5.47;5.13;;;22.50;99.90;;;;;;5111551;28;20178;-71
2022/06/25 07:12:48;;;;;;;5.57;5.17;;;22.70;99.90;;;;;;5100888;27;20238;-71
2022/06/25 07:15:13;;;;;;;5.73;5.27;;;22.80;99.90;;;;;;5116425;27;20216;-70
2022/06/25 07:17:39;;;;;;;5.10;4.70;;;22.90;99.90;;;;;;5105270;28;20179;-70
2022/06/25 07:20:06;;;;;;;5.17;4.77;;;22.90;99.30;;;;;;5110875;28;20187;-75
2022/06/25 07:22:32;;;;;;;5.10;4.80;;;23.00;99.90;;;;;;5113001;28;20289;-71
2022/06/25 07:24:58;;;;;;;7.20;4.90;;;23.20;99.80;;;;;;5112858;28;20443;-71
2022/06/25 07:27:24;;;;;;;4.67;4.40;;;23.30;99.30;;;;;;5112023;28;20441;-71
2022/06/25 07:29:50;;;;;;;5.17;4.87;;;23.40;99.50;;;;;;5121498;27;20440;-71
2022/06/25 07:32:15;;;;;;;4.87;4.47;;;23.40;98.10;;;;;;5112185;28;20422;-69
2022/06/25 07:34:41;;;;;;;5.40;4.87;;;23.10;98.40;;;;;;5115931;27;20180;-69
2022/06/25 07:37:07;;;;;;;4.40;4.10;;;23.10;99.90;;;;;;5108157;28;20215;-71
2022/06/25 07:39:33;;;;;;;4.60;4.30;;;23.30;99.60;;;;;;5126547;28;20191;-70
2022/06/25 07:41:59;;;;;;;5.13;4.30;;;23.30;98.50;;;;;;5136789;27;20457;-70
2022/06/25 07:44:24;;;;;;;5.40;5.00;;;23.40;98.60;;;;;;5129798;27;20825;-70
2022/06/25 07:46:50;;;;;;;4.83;4.30;;;23.60;98.80;;;;;;5117093;28;20274;-70
2022/06/25 07:49:16;;;;;;;5.53;5.20;;;23.80;98.50;;;;;;5131423;27;20261;-70
2022/06/25 07:51:57;;;;;;;5.30;5.00;;;23.80;97.60;;;;;;5130325;27;20508;-71
2022/06/25 07:54:25;;;;;;;4.83;4.53;;;24.00;97.70;;;;;;5118050;27;20175;-69
2022/06/25 07:56:50;;;;;;;4.87;4.50;;;23.90;96.30;;;;;;5119150;27;20525;-69
2022/06/25 07:59:16;;;;;;;4.83;4.43;;;23.90;97.70;;;;;;5138576;27;20428;-69
2022/06/25 08:01:42;;;;;;;4.67;4.37;;;23.90;96.20;;;;;;5133414;27;20202;-70
2022/06/25 08:04:08;;;;;;;5.37;5.00;;;23.80;97.30;;;;;;5121209;27;20179;-70
2022/06/25 08:06:35;;;;;;;4.67;4.33;;;24.00;97.20;;;;;;5119641;28;20897;-70
2022/06/25 08:09:01;;;;;;;4.20;4.00;;;24.20;96.00;;;;;;5130018;27;20235;-70
2022/06/25 08:11:27;;;;;;;4.67;4.40;;;24.30;95.50;;;;;;5119705;27;20420;-70
2022/06/25 08:13:53;;;;;;;4.73;4.33;;;24.40;95.00;;;;;;5122008;27;20782;-70
2022/06/25 08:16:19;;;;;;;4.73;4.33;;;24.30;94.90;;;;;;5124245;27;20211;-70
2022/06/25 08:18:45;;;;;;;4.17;3.87;;;24.40;95.20;;;;;;5136744;27;20174;-70
2022/06/25 08:21:11;;;;;;;4.73;4.23;;;24.60;95.40;;;;;;5117328;28;20552;-70
2022/06/25 08:23:37;;;;;;;4.90;4.60;;;24.70;95.00;;;;;;5119259;28;20428;-71
2022/06/25 08:26:03;;;;;;;4.00;3.70;;;24.70;92.80;;;;;;5118189;28;20413;-71
2022/06/25 08:28:30;;;;;;;5.47;3.77;;;24.70;92.90;;;;;;5117156;28;20651;-71
2022/06/25 08:30:55;;;;;;;4.00;3.80;;;24.70;93.60;;;;;;5125189;27;20465;-71
2022/06/25 08:33:21;;;;;;;3.90;3.70;;;24.90;94.20;;;;;;5068626;28;20425;-70
2022/06/25 08:35:47;;;;;;;4.60;4.03;;;25.00;92.30;;;;;;5126734;27;20237;-71
2022/06/25 08:38:13;;;;;;;3.87;3.57;;;25.10;91.40;;;;;;5134920;27;20183;-71
2022/06/25 08:40:39;;;;;;;3.30;3.20;;;24.90;90.50;;;;;;5138838;27;20268;-71
2022/06/25 08:43:05;;;;;;;3.50;3.20;;;24.90;90.10;;;;;;5132117;27;20228;-71
2022/06/25 08:45:32;;;;;;;3.40;3.20;;;25.10;92.00;;;;;;5115620;27;20778;-72
2022/06/25 08:48:00;;;;;;;3.90;3.63;;;25.30;91.10;;;;;;5120970;27;20431;-71
2022/06/25 08:50:26;;;;;;;4.33;3.60;;;25.20;89.80;;;;;;5135792;27;20440;-71
2022/06/25 08:52:53;;;;;;;3.63;3.43;;;25.30;90.00;;;;;;5121308;27;20420;-71
2022/06/25 08:55:40;;;;;;;3.43;3.33;;;25.30;90.00;;;;;;5114315;28;20544;-71
2022/06/25 08:58:09;;;;;;;4.40;3.30;;;25.30;89.80;;;;;;5115083;27;20766;-72
2022/06/25 09:00:39;;;;;;;4.50;4.10;;;25.40;89.80;;;;;;5117745;27;20451;-71
2022/06/25 09:03:05;;;;;;;4.27;4.07;;;25.50;90.30;;;;;;5110710;28;20421;-71
2022/06/25 09:05:37;;;;;;;3.57;3.47;;;25.40;87.70;;;;;;5127028;27;20428;-71
2022/06/25 09:08:05;;;;;;;4.00;3.80;;;25.50;88.60;;;;;;5115066;27;20429;-71
2022/06/25 09:10:32;;;;;;;4.00;3.80;;;25.40;89.10;;;;;;5128249;27;20412;-71
2022/06/25 09:12:59;;;;;;;6.30;4.00;;;25.40;92.00;;;;;;5117062;27;20473;-71
2022/06/25 09:15:35;;;;;;;3.87;3.57;;;25.40;90.10;;;;;;5113794;28;20456;-70
2022/06/25 09:18:17;;;;;;;4.40;4.10;;;25.50;88.60;;;;;;5129448;27;20436;-71
2022/06/25 09:21:04;;;;;;;4.30;4.00;;;25.40;87.30;;;;;;5126029;27;20568;-71
2022/06/25 09:23:32;;;;;;;4.13;3.83;;;25.50;89.20;;;;;;5114098;28;20409;-71
2022/06/25 09:26:07;;;;;;;3.50;3.30;;;25.70;89.80;;;;;;5117688;27;20460;-71
2022/06/25 09:28:38;;;;;;;4.17;3.97;;;25.90;87.00;;;;;;5134830;27;20569;-71
2022/06/25 09:31:04;;;;;;;3.77;3.53;;;25.80;83.70;;;;;;5121988;27;20430;-71
2022/06/25 09:33:31;;;;;;;3.70;3.50;;;25.80;86.20;;;;;;5121897;27;20417;-72
2022/06/25 09:35:57;;;;;;;4.03;3.77;;;25.60;84.70;;;;;;5125608;27;20845;-71
2022/06/25 09:38:24;;;;;;;4.00;3.70;;;25.60;83.30;;;;;;5134712;27;20416;-71
2022/06/25 09:40:56;;;;;;;3.70;3.30;;;25.50;86.20;;;;;;5134559;27;20407;-72
2022/06/25 09:43:27;;;;;;;4.30;3.90;;;25.60;86.20;;;;;;5112768;27;20782;-73
2022/06/25 09:45:55;;;;;;;3.60;3.37;;;25.60;88.60;;;;;;5114591;28;20410;-71
2022/06/25 09:48:21;;;;;;;3.93;3.60;;;25.70;86.30;;;;;;5112550;28;20846;-71
2022/06/25 09:51:05;;;;;;;4.63;4.33;;;25.80;86.20;;;;;;5114814;28;20417;-71
2022/06/25 09:53:33;;;;;;;4.37;4.17;;;25.90;83.70;;;;;;5113638;27;20635;-72
2022/06/25 09:56:00;;;;;;;4.33;4.13;;;25.90;88.20;;;;;;5108439;27;20466;-76
2022/06/25 09:58:26;;;;;;;5.60;4.40;;;25.90;89.40;;;;;;5126209;27;20421;-76
2022/06/25 10:00:53;;;;;;;3.50;3.37;;;25.90;88.90;;;;;;5135302;27;20405;-75
2022/06/25 10:03:21;;;;;;;4.03;3.77;;;26.00;85.90;;;;;;5115377;27;20454;-75
2022/06/25 10:05:47;;;;;;;4.30;4.00;;;26.20;85.10;;;;;;5114242;28;20520;-74
2022/06/25 10:08:15;;;;;;;4.30;4.00;;;26.30;81.90;;;;;;5117391;27;20833;-75
2022/06/25 10:10:47;;;;;;;4.50;4.03;;;26.50;85.20;;;;;;5108528;27;20426;-74
2022/06/25 10:13:13;;;;;;;4.30;4.00;;;26.70;84.30;;;;;;5118621;27;20820;-75
2022/06/25 10:15:39;;;;;;;3.77;3.57;;;26.70;83.10;;;;;;5128425;27;20441;-75
2022/06/25 10:18:07;;;;;;;3.93;3.73;;;26.70;84.10;;;;;;5114406;28;20457;-75
2022/06/25 10:20:34;;;;;;;3.97;3.67;;;26.80;83.50;;;;;;5113610;28;20490;-75
2022/06/25 10:23:04;;;;;;;3.90;3.70;;;27.10;81.00;;;;;;5114292;28;20756;-76
2022/06/25 10:25:30;;;;;;;3.70;3.50;;;27.30;81.40;;;;;;5113726;28;20800;-76
2022/06/25 10:28:15;;;;;;;5.50;5.10;;;27.40;79.20;;;;;;5113488;28;20409;-76
2022/06/25 10:30:47;;;;;;;4.30;3.97;;;27.50;78.00;;;;;;5113682;27;20420;-75
2022/06/25 10:33:15;;;;;;;3.33;3.03;;;27.50;76.40;;;;;;5099628;28;20426;-69
2022/06/25 10:35:41;;;;;;;3.70;3.40;;;27.50;79.20;;;;;;5092459;28;20455;-69
2022/06/25 10:38:10;;;;;;;4.10;3.73;;;27.60;76.70;;;;;;5098458;28;20416;-69
2022/06/25 10:40:57;;;;;;;3.53;2.97;;;27.70;77.40;;;;;;5109954;28;20913;-67
2022/06/25 10:43:38;;;;;;;4.00;3.70;;;27.80;73.60;;;;;;5059440;28;20768;-70
2022/06/25 10:46:22;;;;;;;4.77;4.10;;;27.80;73.80;;;;;;5111054;27;20768;-67
2022/06/25 10:49:10;;;;;;;3.57;3.27;;;27.90;75.60;;;;;;5128187;27;20788;-69
2022/06/25 10:51:38;;;;;;;3.73;3.43;;;27.80;71.20;;;;;;5116671;27;20529;-69
2022/06/25 10:54:07;;;;;;;3.60;3.40;;;27.70;72.00;;;;;;5113463;28;20762;-70
2022/06/25 10:56:44;;;;;;;3.63;3.33;;;27.60;73.10;;;;;;5112783;28;20477;-70
2022/06/25 10:59:14;;;;;;;3.87;3.60;;;27.60;73.00;;;;;;5113743;28;20425;-70
2022/06/25 11:01:40;;;;;;;3.23;3.00;;;27.70;74.60;;;;;;5111643;28;20434;-69
2022/06/25 11:04:07;;;;;;;3.73;3.50;;;27.80;73.90;;;;;;5113584;28;20864;-70
2022/06/25 11:06:38;;;;;;;3.77;3.57;;;27.90;72.00;;;;;;5112890;28;20262;-70
2022/06/25 11:09:13;;;;;;;3.57;3.00;;;28.20;72.40;;;;;;5113641;28;20958;-70
2022/06/25 11:11:41;;;;;;;3.47;3.27;;;28.20;71.70;;;;;;5112915;28;20389;-70
2022/06/25 11:14:20;;;;;;;3.30;3.20;;;28.20;69.30;;;;;;5113430;28;20413;-70
2022/06/25 11:16:47;;;;;;;3.17;3.07;;;28.10;69.40;;;;;;5112512;28;20465;-70
2022/06/25 11:19:13;;;;;;;3.50;3.30;;;28.10;69.80;;;;;;5111973;28;20417;-69
2022/06/25 11:21:41;;;;;;;3.63;3.33;;;27.70;69.20;;;;;;5110619;28;20481;-69
2022/06/25 11:24:14;;;;;;;4.13;3.20;;;27.60;71.70;;;;;;5113200;28;20397;-70
2022/06/25 11:29:31;;;;;;;3.60;3.30;;;27.40;73.00;;;;;;5112675;28;20485;-69
2022/06/25 11:31:57;;;;;;;3.47;3.37;;;27.30;72.10;;;;;;5113175;28;20810;-68
2022/06/25 11:34:25;;;;;;;3.93;3.70;;;27.20;69.70;;;;;;5112823;28;20496;-69
2022/06/25 11:36:58;;;;;;;3.30;3.20;;;27.20;69.20;;;;;;5112131;28;20469;-69
2022/06/25 11:39:24;;;;;;;3.50;3.30;;;26.90;69.20;;;;;;5112488;28;20453;-69
2022/06/25 11:41:51;;;;;;;3.50;3.40;;;26.90;68.90;;;;;;5113157;28;20464;-70
2022/06/25 11:44:18;;;;;;;4.20;3.90;;;27.10;69.50;;;;;;5111887;28;20441;-70
2022/06/25 11:46:45;;;;;;;4.00;3.80;;;27.30;72.20;;;;;;5112762;28;20413;-69
2022/06/25 11:49:12;;;;;;;3.97;3.50;;;27.40;75.20;;;;;;5111308;28;20429;-69
2022/06/25 11:51:44;;;;;;;3.67;3.50;;;27.60;71.00;;;;;;5092897;28;20433;-70
2022/06/25 11:54:10;;;;;;;3.70;3.50;;;27.70;69.20;;;;;;5112169;28;20427;-70
2022/06/25 11:56:36;;;;;;;4.07;3.57;;;27.80;70.00;;;;;;5111886;28;20461;-70
2022/06/25 11:59:02;;;;;;;3.13;2.93;;;27.90;69.10;;;;;;5111600;28;20502;-70
2022/06/25 12:01:29;;;;;;;4.40;4.00;;;28.00;69.60;;;;;;5111722;28;20171;-69
2022/06/25 12:03:56;;;;;;;3.93;3.73;;;28.20;70.00;;;;;;5111529;28;20262;-70
2022/06/25 12:06:23;;;;;;;3.70;3.50;;;28.40;71.80;;;;;;5112245;28;20452;-71
2022/06/25 12:08:50;;;;;;;3.70;3.43;;;28.40;65.50;;;;;;5111656;28;20425;-72
2022/06/25 12:11:16;;;;;;;3.73;3.53;;;28.40;65.70;;;;;;5112528;28;20413;-72
2022/06/25 12:13:42;;;;;;;4.00;3.80;;;28.30;65.60;;;;;;5111914;28;20408;-71
2022/06/25 12:16:08;;;;;;;4.30;4.00;;;28.30;68.00;;;;;;5112403;28;20807;-71
2022/06/25 12:18:41;;;;;;;14.00;12.17;;;28.30;66.30;;;;;;5111318;28;20414;-71
2022/06/25 12:21:09;;;;;;;93.03;83.70;;;28.40;67.20;;;;;;5110364;28;20219;-71
2022/06/25 12:23:50;;;;;;;60.00;39.60;;;28.50;68.40;;;;;;5110870;28;20436;-71
2022/06/25 12:26:25;;;;;;;5.87;5.37;;;28.50;66.20;;;;;;5112688;28;20771;-71
2022/06/25 12:28:51;;;;;;;62.50;56.30;;;28.50;65.40;;;;;;5112541;28;20496;-71
2022/06/25 12:31:17;;;;;;;21.23;19.07;;;28.40;65.00;;;;;;5114732;28;20801;-71
2022/06/25 12:33:52;;;;;;;9.63;8.63;;;28.30;66.30;;;;;;5097141;28;20172;-71
2022/06/25 12:36:19;;;;;;;4.10;3.80;;;28.20;64.20;;;;;;5114952;28;20749;-71
2022/06/25 12:38:45;;;;;;;3.63;3.43;;;28.00;63.90;;;;;;5114742;28;20432;-71
2022/06/25 12:41:11;;;;;;;3.03;2.93;;;27.80;67.60;;;;;;5115970;28;20410;-71
2022/06/25 12:43:47;;;;;;;3.60;3.50;;;27.80;67.60;;;;;;5115421;28;20424;-71
2022/06/25 12:46:14;;;;;;;3.50;3.30;;;27.70;69.00;;;;;;5115615;28;20529;-71
2022/06/25 12:48:40;;;;;;;3.53;3.33;;;27.50;67.70;;;;;;5113823;28;20425;-71
2022/06/25 12:51:10;;;;;;;3.57;3.27;;;27.50;68.70;;;;;;5113266;28;20457;-71
2022/06/25 12:53:37;;;;;;;3.67;3.37;;;27.40;66.40;;;;;;5115753;28;20761;-74
2022/06/25 12:56:04;;;;;;;3.50;3.30;;;27.20;67.80;;;;;;5118245;28;20460;-74
2022/06/25 12:58:35;;;;;;;5.80;3.07;;;27.20;69.00;;;;;;5120328;28;20410;-74